createdAt,value
2024-02-02T00:01:17.935Z,27.27
2024-02-02T00:03:45.817Z,27.57
2024-02-02T00:06:12.602Z,24.93
2024-02-02T00:08:39.324Z,23.20
2024-02-02T00:11:06.949Z,22.10
2024-02-02T00:13:33.931Z,22.33
2024-02-02T00:16:00.674Z,19.03
2024-02-02T00:18:27.536Z,16.03
2024-02-02T00:20:55.605Z,14.57
2024-02-02T00:23:22.931Z,13.50
2024-02-02T00:25:49.719Z,10.17
2024-02-02T00:28:16.566Z,13.10
2024-02-02T00:30:43.295Z,12.23
2024-02-02T00:33:10.148Z,9.27
2024-02-02T00:35:36.933Z,6.53
2024-02-02T00:38:03.693Z,5.73
2024-02-02T00:40:30.552Z,7.77
2024-02-02T00:42:57.380Z,7.50
2024-02-02T00:45:25.092Z,5.40
2024-02-02T00:47:53.027Z,5.60
2024-02-02T00:50:19.837Z,6.97
2024-02-02T00:52:46.542Z,4.97
2024-02-02T00:55:13.333Z,5.60
2024-02-02T00:57:40.123Z,3.93
2024-02-02T01:00:07.493Z,8.23
2024-02-02T01:02:34.360Z,3.60
2024-02-02T01:05:01.048Z,5.07
2024-02-02T01:07:27.931Z,1.70
2024-02-02T01:09:55.746Z,3.77
2024-02-02T01:12:22.605Z,1.80
2024-02-02T01:14:49.399Z,2.50
2024-02-02T01:17:16.170Z,3.50
2024-02-02T01:19:42.961Z,2.67
2024-02-02T01:22:10.532Z,2.65
2024-02-02T01:24:37.300Z,2.63
2024-02-02T01:27:04.317Z,6.07
2024-02-02T01:29:31.037Z,3.87
2024-02-02T01:31:57.733Z,3.43
2024-02-02T01:34:24.918Z,4.07
2024-02-02T01:36:53.261Z,2.47
2024-02-02T01:39:20.034Z,3.53
2024-02-02T01:41:46.917Z,2.20
2024-02-02T01:44:13.576Z,2.77
2024-02-02T01:46:47.919Z,4.27
2024-02-02T01:49:15.281Z,4.77
2024-02-02T01:51:43.808Z,3.20
2024-02-02T01:54:11.327Z,3.70
2024-02-02T01:56:38.305Z,5.80
2024-02-02T01:59:06.211Z,3.17
2024-02-02T02:01:33.327Z,2.33
2024-02-02T02:04:00.345Z,2.77
2024-02-02T02:06:27.263Z,2.43
2024-02-02T02:08:54.093Z,2.90
2024-02-02T02:11:20.889Z,3.07
2024-02-02T02:13:47.734Z,9.13
2024-02-02T02:16:14.558Z,5.37
2024-02-02T02:18:52.280Z,4.60
2024-02-02T02:21:27.995Z,3.83
2024-02-02T02:23:55.938Z,2.87
2024-02-02T02:26:30.408Z,8.38
2024-02-02T02:28:57.138Z,7.13
2024-02-02T02:31:23.885Z,7.27
2024-02-02T02:33:50.745Z,6.80
2024-02-02T02:36:17.796Z,9.23
2024-02-02T02:38:47.606Z,7.70
2024-02-02T02:41:15.062Z,5.00
2024-02-02T02:43:41.844Z,6.23
2024-02-02T02:46:09.117Z,7.77
2024-02-02T02:48:38.214Z,10.07
2024-02-02T02:51:05.308Z,11.63
2024-02-02T02:53:32.080Z,12.17
2024-02-02T02:55:58.861Z,10.63
2024-02-02T02:58:25.681Z,10.33
2024-02-02T03:00:54.326Z,10.40
2024-02-02T03:03:21.154Z,13.47
2024-02-02T03:05:48.470Z,15.20
2024-02-02T03:08:15.364Z,5.87
2024-02-02T03:10:43.206Z,7.53
2024-02-02T03:13:10.978Z,15.77
2024-02-02T03:15:39.559Z,17.77
2024-02-02T03:18:06.762Z,14.70
2024-02-02T03:20:33.614Z,12.70
2024-02-02T03:23:00.986Z,13.90
2024-02-02T03:25:27.684Z,14.13
2024-02-02T03:27:54.354Z,7.73
2024-02-02T03:30:22.197Z,10.30
2024-02-02T03:32:50.480Z,5.87
2024-02-02T03:35:17.469Z,5.97
2024-02-02T03:37:44.240Z,17.53
2024-02-02T03:40:12.178Z,17.33
2024-02-02T03:42:38.938Z,14.30
2024-02-02T03:45:08.309Z,15.70
2024-02-02T03:47:35.246Z,11.43
2024-02-02T03:50:02.339Z,6.07
2024-02-02T03:52:29.234Z,13.50
2024-02-02T03:54:55.953Z,15.70
2024-02-02T03:57:22.899Z,15.13
2024-02-02T03:59:49.835Z,11.20
2024-02-02T04:02:16.620Z,17.27
2024-02-02T04:04:44.139Z,13.20
2024-02-02T04:07:11.060Z,16.73
2024-02-02T04:09:39.010Z,17.27
2024-02-02T04:12:06.051Z,18.37
2024-02-02T04:14:32.775Z,19.23
2024-02-02T04:16:59.451Z,19.83
2024-02-02T04:19:26.238Z,25.27
2024-02-02T04:21:52.981Z,36.57
2024-02-02T04:24:19.742Z,30.80
2024-02-02T04:26:46.503Z,23.03
2024-02-02T04:29:13.429Z,41.30
2024-02-02T04:31:41.108Z,34.23
2024-02-02T04:34:07.936Z,32.23
2024-02-02T04:36:34.783Z,25.53
2024-02-02T04:39:01.610Z,18.80
2024-02-02T04:41:28.319Z,10.80
2024-02-02T04:43:54.962Z,17.80
2024-02-02T04:46:21.661Z,27.67
2024-02-02T04:48:49.032Z,31.93
2024-02-02T04:51:16.050Z,40.40
2024-02-02T04:53:42.863Z,36.73
2024-02-02T04:56:10.106Z,33.57
2024-02-02T04:58:36.756Z,36.17
2024-02-02T05:01:03.473Z,32.03
2024-02-02T05:03:32.131Z,28.13
2024-02-02T05:05:59.213Z,26.97
2024-02-02T05:08:26.094Z,29.47
2024-02-02T05:10:52.868Z,27.70
2024-02-02T05:13:21.093Z,26.50
2024-02-02T05:15:47.763Z,27.37
2024-02-02T05:18:15.613Z,30.73
2024-02-02T05:20:42.570Z,28.23
2024-02-02T05:23:11.921Z,24.13
2024-02-02T05:25:38.645Z,23.17
2024-02-02T05:28:05.758Z,23.43
2024-02-02T05:30:33.071Z,23.13
2024-02-02T05:32:59.972Z,25.77
2024-02-02T05:35:27.150Z,27.00
2024-02-02T05:37:53.833Z,29.43
2024-02-02T05:40:20.616Z,31.57
2024-02-02T05:42:57.336Z,26.10
2024-02-02T05:45:24.085Z,10.90
2024-02-02T05:47:51.034Z,31.77
2024-02-02T05:50:17.791Z,30.83
2024-02-02T05:52:44.814Z,29.37
2024-02-02T05:55:11.607Z,34.53
2024-02-02T05:57:38.444Z,30.37
2024-02-02T06:00:06.037Z,35.97
2024-02-02T06:02:32.792Z,32.23
2024-02-02T06:04:59.502Z,30.57
2024-02-02T06:07:26.319Z,30.47
2024-02-02T06:09:53.098Z,25.40
2024-02-02T06:12:20.014Z,22.07
2024-02-02T06:14:46.781Z,32.00
2024-02-02T06:17:14.189Z,26.57
2024-02-02T06:19:43.010Z,26.57
2024-02-02T06:22:09.696Z,40.07
2024-02-02T06:24:36.373Z,36.03
2024-02-02T06:27:03.534Z,34.13
2024-02-02T06:29:30.675Z,28.77
2024-02-02T06:31:59.280Z,34.53
2024-02-02T06:34:26.235Z,35.57
2024-02-02T06:36:53.013Z,34.93
2024-02-02T06:39:21.566Z,45.67
2024-02-02T06:41:48.523Z,43.03
2024-02-02T06:44:15.197Z,45.57
2024-02-02T06:46:42.151Z,50.60
2024-02-02T06:49:08.941Z,46.63
2024-02-02T06:51:35.876Z,45.93
2024-02-02T06:54:03.333Z,49.50
2024-02-02T06:56:47.601Z,53.38
2024-02-02T06:59:15.690Z,54.03
2024-02-02T07:01:42.492Z,76.00
2024-02-02T07:04:14.098Z,78.95
2024-02-02T07:06:42.392Z,82.10
2024-02-02T07:09:21.512Z,88.32
2024-02-02T07:12:06.604Z,95.57
2024-02-02T07:14:42.313Z,77.13
2024-02-02T07:17:35.132Z,74.03
2024-02-02T07:20:05.614Z,76.95
2024-02-02T07:22:45.016Z,110.78
2024-02-02T07:25:18.661Z,70.63
2024-02-02T07:27:48.421Z,42.05
2024-02-02T07:30:38.091Z,69.13
2024-02-02T07:33:25.821Z,67.20
2024-02-02T07:35:54.810Z,59.78
2024-02-02T07:38:36.693Z,64.50
2024-02-02T07:41:08.605Z,81.70
2024-02-02T07:43:36.524Z,150.02
2024-02-02T07:46:09.116Z,111.47
2024-02-02T07:48:39.459Z,55.70
2024-02-02T07:51:07.257Z,77.05
2024-02-02T07:53:34.834Z,63.33
2024-02-02T07:56:02.237Z,51.30
2024-02-02T07:58:29.481Z,45.13
2024-02-02T08:00:56.322Z,26.95
2024-02-02T08:03:23.222Z,35.95
2024-02-02T08:05:50.205Z,25.05
2024-02-02T08:08:16.959Z,14.93
2024-02-02T08:10:44.644Z,6.32
2024-02-02T08:13:13.999Z,4.80
2024-02-02T08:15:41.061Z,4.35
2024-02-02T08:18:09.061Z,4.20
2024-02-02T08:20:36.219Z,10.32
2024-02-02T08:23:03.238Z,12.73
2024-02-02T08:25:30.395Z,15.20
2024-02-02T08:27:57.888Z,15.52
2024-02-02T08:30:27.493Z,12.40
2024-02-02T08:32:54.351Z,16.05
2024-02-02T08:35:25.799Z,56.03
2024-02-02T08:37:58.010Z,4.47
2024-02-02T08:40:44.191Z,17.30
2024-02-02T08:43:20.708Z,11.15
2024-02-02T08:46:14.890Z,10.15
2024-02-02T08:48:47.996Z,12.52
2024-02-02T08:51:24.730Z,7.60
2024-02-02T08:54:13.754Z,7.80
2024-02-02T08:56:40.488Z,7.72
2024-02-02T08:59:40.785Z,12.25
2024-02-02T09:02:07.997Z,8.18
2024-02-02T09:04:58.174Z,7.03
2024-02-02T09:07:24.936Z,7.93
2024-02-02T09:09:53.236Z,4.55
2024-02-02T09:12:20.228Z,4.82
2024-02-02T09:14:47.214Z,3.60
2024-02-02T09:17:14.270Z,4.60
2024-02-02T09:19:47.065Z,4.47
2024-02-02T09:22:18.962Z,5.70
2024-02-02T09:24:50.921Z,4.78
2024-02-02T09:27:38.051Z,5.15
2024-02-02T09:30:19.194Z,5.32
2024-02-02T09:32:46.381Z,5.50
2024-02-02T09:35:47.905Z,6.03
2024-02-02T09:38:14.622Z,8.10
2024-02-02T09:41:03.224Z,6.55
2024-02-02T09:43:30.128Z,5.40
2024-02-02T09:46:17.727Z,7.13
2024-02-02T09:49:18.418Z,6.40
2024-02-02T09:52:26.703Z,6.00
2024-02-02T09:55:02.076Z,7.07
2024-02-02T09:57:42.684Z,5.25
2024-02-02T10:00:36.810Z,6.57
2024-02-02T10:03:41.281Z,6.68
2024-02-02T10:06:26.558Z,4.65
2024-02-02T10:09:11.878Z,5.88
2024-02-02T10:15:17.733Z,5.00
2024-02-02T10:17:50.466Z,9.15
2024-02-02T10:20:30.919Z,7.07
2024-02-02T10:23:25.029Z,11.40
2024-02-02T10:26:15.443Z,5.85
2024-02-02T10:29:04.730Z,4.80
2024-02-02T10:31:31.384Z,5.43
2024-02-02T10:34:04.294Z,5.13
2024-02-02T10:36:59.049Z,5.47
2024-02-02T10:39:46.981Z,7.25
2024-02-02T10:42:54.571Z,5.57
2024-02-02T10:45:48.146Z,4.30
2024-02-02T10:48:53.226Z,5.35
2024-02-02T10:51:20.001Z,4.55
2024-02-02T10:53:58.549Z,6.13
2024-02-02T10:56:30.624Z,6.32
2024-02-02T10:59:09.520Z,4.57
2024-02-02T11:01:43.208Z,3.80
2024-02-02T11:04:27.941Z,3.70
2024-02-02T11:07:21.265Z,3.97
2024-02-02T11:09:48.032Z,3.40
2024-02-02T11:12:30.706Z,4.00
2024-02-02T11:15:05.570Z,5.30
2024-02-02T11:17:35.995Z,5.07
2024-02-02T11:20:11.799Z,3.47
2024-02-02T11:22:44.645Z,4.43
2024-02-02T11:25:39.246Z,5.28
2024-02-02T11:28:15.264Z,4.40
2024-02-02T11:30:53.914Z,4.40
2024-02-02T11:33:40.282Z,4.75
2024-02-02T11:36:54.686Z,3.78
2024-02-02T11:39:45.109Z,3.97
2024-02-02T11:42:13.681Z,5.05
2024-02-02T11:44:42.307Z,6.82
2024-02-02T11:47:10.673Z,5.65
2024-02-02T11:49:44.805Z,5.53
2024-02-02T11:52:23.775Z,5.47
2024-02-02T11:55:02.731Z,4.22
2024-02-02T11:57:34.001Z,4.72
2024-02-02T12:00:03.901Z,4.25
2024-02-02T12:02:39.214Z,5.18
2024-02-02T12:05:25.157Z,7.35
2024-02-02T12:08:08.384Z,6.22
2024-02-02T12:10:43.985Z,4.95
2024-02-02T12:13:22.626Z,5.32
2024-02-02T12:15:53.979Z,3.85
2024-02-02T12:18:22.081Z,5.13
2024-02-02T12:20:50.514Z,5.28
2024-02-02T12:23:17.274Z,4.93
2024-02-02T12:25:45.966Z,5.05
2024-02-02T12:28:13.030Z,4.85
2024-02-02T12:30:39.887Z,6.88
2024-02-02T12:33:07.331Z,4.13
2024-02-02T12:35:34.460Z,4.50
2024-02-02T12:38:01.743Z,3.80
2024-02-02T12:40:28.854Z,4.85
2024-02-02T12:43:02.712Z,5.05
2024-02-02T12:45:32.579Z,4.10
2024-02-02T12:48:02.309Z,7.38
2024-02-02T12:50:29.064Z,5.30
2024-02-02T12:52:55.844Z,4.72
2024-02-02T12:55:22.753Z,4.97
2024-02-02T12:57:49.815Z,5.30
2024-02-02T13:00:17.557Z,6.10
2024-02-02T13:02:47.169Z,5.10
2024-02-02T13:05:18.719Z,5.45
2024-02-02T13:07:52.715Z,5.78
2024-02-02T13:10:35.790Z,5.68
2024-02-02T13:13:15.542Z,7.65
2024-02-02T13:15:43.081Z,7.18
2024-02-02T13:18:20.540Z,7.53
2024-02-02T13:20:50.666Z,5.30
2024-02-02T13:23:31.854Z,7.90
2024-02-02T13:26:02.086Z,6.25
2024-02-02T13:28:39.401Z,6.72
2024-02-02T13:31:16.506Z,6.82
2024-02-02T13:33:55.225Z,7.45
2024-02-02T13:36:24.048Z,6.05
2024-02-02T13:39:00.854Z,9.32
2024-02-02T13:41:28.695Z,7.07
2024-02-02T13:44:04.413Z,6.43
2024-02-02T13:46:32.686Z,7.72
2024-02-02T13:49:01.762Z,6.00
2024-02-02T13:51:29.926Z,5.30
2024-02-02T13:53:58.010Z,5.93
2024-02-02T13:56:29.900Z,6.63
2024-02-02T13:58:57.213Z,6.60
2024-02-02T14:01:28.787Z,7.38
2024-02-02T14:03:56.253Z,7.93
2024-02-02T14:06:23.494Z,7.72
2024-02-02T14:08:53.328Z,8.35
2024-02-02T14:11:28.574Z,7.28
2024-02-02T14:13:56.176Z,6.22
2024-02-02T14:16:27.446Z,6.72
2024-02-02T14:19:06.191Z,6.15
2024-02-02T14:21:35.342Z,8.38
2024-02-02T14:24:08.998Z,8.93
2024-02-02T14:26:57.087Z,11.70
2024-02-02T14:29:26.383Z,7.03
2024-02-02T14:31:56.991Z,9.25
2024-02-02T14:34:25.249Z,16.00
2024-02-02T14:36:53.022Z,8.50
2024-02-02T14:39:27.601Z,6.93
2024-02-02T14:41:55.624Z,6.70
2024-02-02T14:44:25.053Z,8.82
2024-02-02T14:46:51.959Z,7.65
2024-02-02T14:49:25.323Z,7.90
2024-02-02T14:51:56.013Z,9.18
2024-02-02T14:54:25.185Z,8.27
2024-02-02T14:56:53.062Z,7.90
2024-02-02T14:59:30.205Z,10.50
2024-02-02T15:01:57.787Z,8.13
2024-02-02T15:04:24.693Z,8.95
2024-02-02T15:06:52.153Z,9.45
2024-02-02T15:09:19.980Z,10.25
2024-02-02T15:11:46.885Z,11.02
2024-02-02T15:14:15.787Z,10.98
2024-02-02T15:16:42.622Z,8.50
2024-02-02T15:19:10.063Z,9.52
2024-02-02T15:21:37.059Z,9.35
2024-02-02T15:24:04.133Z,10.48
2024-02-02T15:26:35.994Z,10.85
2024-02-02T15:29:02.672Z,12.73
2024-02-02T15:31:29.368Z,15.05
2024-02-02T15:33:56.133Z,11.52
2024-02-02T15:36:23.853Z,13.48
2024-02-02T15:39:06.655Z,17.38
2024-02-02T15:41:38.981Z,15.15
2024-02-02T15:44:05.769Z,52.25
2024-02-02T15:46:34.520Z,18.73
2024-02-02T15:49:01.433Z,12.98
2024-02-02T15:51:31.891Z,16.85
2024-02-02T15:53:59.003Z,20.30
2024-02-02T15:56:26.081Z,6.80
2024-02-02T15:58:53.517Z,9.63
2024-02-02T16:01:21.016Z,11.10
2024-02-02T16:03:50.324Z,11.98
2024-02-02T16:06:23.064Z,13.43
2024-02-02T16:08:51.407Z,13.73
2024-02-02T16:11:20.268Z,5.47
2024-02-02T16:13:47.148Z,7.10
2024-02-02T16:16:13.900Z,9.88
2024-02-02T16:18:40.715Z,8.65
2024-02-02T16:21:07.564Z,11.13
2024-02-02T16:23:34.300Z,11.35
2024-02-02T16:26:01.030Z,12.57
2024-02-02T16:28:28.160Z,10.10
2024-02-02T16:30:56.239Z,13.23
2024-02-02T16:33:23.894Z,10.60
2024-02-02T16:35:51.288Z,11.57
2024-02-02T16:38:18.074Z,7.57
2024-02-02T16:40:44.868Z,9.60
2024-02-02T16:43:11.607Z,12.95
2024-02-02T16:45:38.454Z,20.90
2024-02-02T16:48:11.451Z,15.60
2024-02-02T16:50:38.490Z,12.77
2024-02-02T16:53:08.219Z,8.18
2024-02-02T16:55:35.253Z,5.57
2024-02-02T16:58:02.976Z,18.92
2024-02-02T17:00:30.872Z,12.82
2024-02-02T17:02:57.584Z,15.30
2024-02-02T17:05:24.260Z,18.80
2024-02-02T17:07:52.322Z,15.40
2024-02-02T17:10:19.451Z,9.47
2024-02-02T17:12:46.385Z,8.20
2024-02-02T17:15:14.361Z,11.23
2024-02-02T17:17:43.700Z,12.82
2024-02-02T17:20:12.407Z,15.60
2024-02-02T17:22:44.081Z,11.50
2024-02-02T17:25:12.164Z,10.60
2024-02-02T17:27:39.846Z,7.88
2024-02-02T17:30:10.499Z,11.82
2024-02-02T17:32:39.841Z,11.05
2024-02-02T17:35:08.941Z,8.67
2024-02-02T17:37:37.932Z,7.95
2024-02-02T17:40:05.785Z,8.57
2024-02-02T17:42:35.120Z,9.07
2024-02-02T17:45:01.922Z,9.43
2024-02-02T17:47:28.657Z,9.57
2024-02-02T17:49:57.254Z,9.13
2024-02-02T17:52:25.362Z,6.63
2024-02-02T17:54:54.241Z,7.50
2024-02-02T17:57:21.961Z,6.72
2024-02-02T17:59:48.714Z,14.60
2024-02-02T18:02:15.828Z,9.60
2024-02-02T18:04:42.615Z,13.37
2024-02-02T18:07:12.637Z,9.83
2024-02-02T18:09:40.126Z,10.00
2024-02-02T18:12:11.788Z,15.13
2024-02-02T18:14:40.352Z,20.63
2024-02-02T18:17:09.943Z,19.93
2024-02-02T18:19:36.733Z,10.93
2024-02-02T18:22:03.753Z,16.77
2024-02-02T18:24:30.768Z,14.47
2024-02-02T18:26:57.487Z,14.53
2024-02-02T18:29:26.982Z,17.13
2024-02-02T18:31:55.157Z,8.33
2024-02-02T18:34:22.565Z,16.37
2024-02-02T18:36:49.490Z,12.13
2024-02-02T18:39:18.929Z,14.00
2024-02-02T18:41:52.784Z,26.23
2024-02-02T18:44:19.505Z,27.17
2024-02-02T18:46:47.383Z,32.83
2024-02-02T18:49:15.243Z,10.37
2024-02-02T18:51:42.624Z,19.93
2024-02-02T18:54:12.422Z,38.57
2024-02-02T18:56:39.270Z,25.83
2024-02-02T18:59:05.959Z,18.10
2024-02-02T19:01:34.412Z,9.30
2024-02-02T19:04:02.789Z,13.07
2024-02-02T19:06:29.684Z,17.30
2024-02-02T19:08:56.802Z,12.33
2024-02-02T19:11:23.585Z,11.63
2024-02-02T19:13:50.394Z,12.70
2024-02-02T19:16:25.318Z,11.10
2024-02-02T19:21:27.225Z,15.63
2024-02-02T19:23:57.470Z,13.38
2024-02-02T19:26:24.158Z,16.40
2024-02-02T19:28:52.449Z,21.63
2024-02-02T19:31:24.025Z,32.53
2024-02-02T19:33:51.752Z,24.80
2024-02-02T19:36:27.431Z,25.40
2024-02-02T19:38:54.968Z,16.40
2024-02-02T19:41:32.274Z,18.33
2024-02-02T19:43:59.938Z,23.17
2024-02-02T19:46:31.749Z,33.37
2024-02-02T19:49:00.665Z,28.83
2024-02-02T19:51:29.062Z,31.00
2024-02-02T19:53:57.719Z,17.03
2024-02-02T19:56:26.556Z,16.13
2024-02-02T19:58:55.689Z,13.87
2024-02-02T20:01:25.670Z,12.07
2024-02-02T20:03:52.589Z,13.10
2024-02-02T20:06:21.798Z,10.67
2024-02-02T20:08:49.689Z,11.13
2024-02-02T20:11:18.426Z,12.67
2024-02-02T20:13:45.879Z,20.00
2024-02-02T20:16:17.947Z,24.73
2024-02-02T20:18:44.906Z,30.47
2024-02-02T20:21:15.936Z,32.43
2024-02-02T20:23:45.409Z,28.30
2024-02-02T20:26:20.419Z,32.03
2024-02-02T20:28:52.802Z,31.37
2024-02-02T20:31:20.118Z,34.77
2024-02-02T20:33:52.191Z,29.70
2024-02-02T20:36:20.940Z,23.90
2024-02-02T20:38:48.014Z,20.97
2024-02-02T20:41:15.229Z,13.40
2024-02-02T20:43:45.869Z,14.13
2024-02-02T20:46:15.383Z,10.37
2024-02-02T20:48:42.363Z,11.70
2024-02-02T20:51:10.544Z,16.67
2024-02-02T20:53:38.053Z,24.03
2024-02-02T20:56:05.161Z,23.20
2024-02-02T20:58:31.866Z,20.03
2024-02-02T21:01:00.800Z,19.23
2024-02-02T21:03:28.037Z,18.20
2024-02-02T21:05:58.843Z,19.80
2024-02-02T21:08:30.255Z,21.03
2024-02-02T21:10:57.008Z,21.33
2024-02-02T21:13:24.735Z,20.40
2024-02-02T21:15:53.730Z,20.77
2024-02-02T21:18:21.486Z,21.77
2024-02-02T21:20:51.323Z,21.07
2024-02-02T21:23:19.368Z,34.63
2024-02-02T21:25:47.043Z,26.80
2024-02-02T21:28:14.898Z,27.63
2024-02-02T21:30:44.600Z,18.53
2024-02-02T21:33:11.926Z,20.43
2024-02-02T21:35:38.842Z,26.07
2024-02-02T21:38:05.601Z,32.40
2024-02-02T21:40:34.770Z,28.60
2024-02-02T21:43:01.511Z,24.23
2024-02-02T21:45:29.201Z,22.53
2024-02-02T21:47:57.143Z,21.50
2024-02-02T21:50:24.016Z,20.80
2024-02-02T21:52:50.953Z,24.97
2024-02-02T21:55:17.713Z,26.00
2024-02-02T21:57:44.648Z,27.13
2024-02-02T22:00:15.272Z,28.13
2024-02-02T22:02:42.266Z,27.53
2024-02-02T22:05:09.160Z,24.83
2024-02-02T22:07:38.705Z,24.47
2024-02-02T22:10:06.412Z,22.87
2024-02-02T22:12:33.432Z,22.00
2024-02-02T22:15:00.209Z,23.83
2024-02-02T22:17:32.943Z,29.77
2024-02-02T22:19:59.900Z,25.23
2024-02-02T22:22:29.191Z,25.30
2024-02-02T22:24:56.401Z,24.57
2024-02-02T22:27:24.200Z,26.43
2024-02-02T22:29:51.465Z,21.00
2024-02-02T22:32:21.199Z,11.77
2024-02-02T22:34:49.201Z,10.83
2024-02-02T22:37:16.202Z,12.47
2024-02-02T22:39:43.039Z,12.13
2024-02-02T22:42:10.967Z,15.13
2024-02-02T22:44:37.753Z,16.97
2024-02-02T22:47:05.914Z,20.60
2024-02-02T22:49:35.166Z,18.93
2024-02-02T22:52:03.290Z,15.47
2024-02-02T22:54:29.995Z,19.53
2024-02-02T22:56:56.771Z,14.57
2024-02-02T22:59:23.548Z,16.20
2024-02-02T23:01:50.406Z,10.57
2024-02-02T23:04:17.422Z,9.87
2024-02-02T23:06:44.468Z,8.67
2024-02-02T23:09:12.658Z,9.50
2024-02-02T23:11:39.416Z,11.17
2024-02-02T23:14:06.537Z,20.47
2024-02-02T23:16:33.688Z,20.23
2024-02-02T23:19:00.788Z,19.20
2024-02-02T23:21:27.597Z,23.37
2024-02-02T23:23:54.424Z,27.97
2024-02-02T23:26:22.319Z,23.83
2024-02-02T23:28:49.053Z,18.67
2024-02-02T23:31:15.745Z,16.30
2024-02-02T23:33:43.531Z,13.37
2024-02-02T23:36:10.530Z,14.57
2024-02-02T23:38:37.298Z,18.67
2024-02-02T23:41:05.426Z,17.37
2024-02-02T23:43:32.169Z,18.40
2024-02-02T23:45:58.926Z,13.67
2024-02-02T23:48:25.988Z,12.43
2024-02-02T23:50:52.763Z,9.70
2024-02-02T23:53:19.443Z,11.27
2024-02-02T23:55:46.153Z,10.53
2024-02-02T23:58:12.836Z,6.80
